sensor_id;sensor_type;location;lat;lon;timestamp;temperature;humidity
9389;DHT22;4734;52.778;6.798;2022-07-17T03:29:04;13.90;71.90
9389;DHT22;4734;52.778;6.798;2022-07-17T03:31:51;13.80;72.50
9389;DHT22;4734;52.778;6.798;2022-07-17T03:34:38;13.80;72.60
9389;DHT22;4734;52.778;6.798;2022-07-17T03:37:23;13.70;72.30
9389;DHT22;4734;52.778;6.798;2022-07-17T03:40:10;13.80;72.40
9389;DHT22;4734;52.778;6.798;2022-07-17T03:42:56;13.70;72.20
9389;DHT22;4734;52.778;6.798;2022-07-17T03:45:42;13.70;72.30
9389;DHT22;4734;52.778;6.798;2022-07-17T03:48:28;13.70;72.20
9389;DHT22;4734;52.778;6.798;2022-07-17T03:51:15;13.60;72.00
9389;DHT22;4734;52.778;6.798;2022-07-17T03:54:00;13.60;72.20
9389;DHT22;4734;52.778;6.798;2022-07-17T03:56:46;13.60;72.20
9389;DHT22;4734;52.778;6.798;2022-07-17T03:59:31;13.50;72.20
9389;DHT22;4734;52.778;6.798;2022-07-17T04:02:17;13.50;72.10
9389;DHT22;4734;52.778;6.798;2022-07-17T04:05:03;13.50;72.20
9389;DHT22;4734;52.778;6.798;2022-07-17T04:07:54;13.50;72.20
9389;DHT22;4734;52.778;6.798;2022-07-17T04:10:40;13.50;72.20
9389;DHT22;4734;52.778;6.798;2022-07-17T04:13:25;13.50;72.10
9389;DHT22;4734;52.778;6.798;2022-07-17T04:16:11;13.50;72.10
9389;DHT22;4734;52.778;6.798;2022-07-17T04:18:57;13.40;72.00
9389;DHT22;4734;52.778;6.798;2022-07-17T04:21:42;13.40;72.00
9389;DHT22;4734;52.778;6.798;2022-07-17T04:24:30;13.40;72.00
9389;DHT22;4734;52.778;6.798;2022-07-17T04:27:16;13.40;72.00
9389;DHT22;4734;52.778;6.798;2022-07-17T04:30:01;13.30;71.90
9389;DHT22;4734;52.778;6.798;2022-07-17T04:32:47;13.40;71.90
9389;DHT22;4734;52.778;6.798;2022-07-17T04:35:33;13.30;71.70
9389;DHT22;4734;52.778;6.798;2022-07-17T04:38:18;13.30;71.90
9389;DHT22;4734;52.778;6.798;2022-07-17T04:41:05;13.20;71.90
9389;DHT22;4734;52.778;6.798;2022-07-17T04:43:51;13.20;71.80
9389;DHT22;4734;52.778;6.798;2022-07-17T04:46:38;13.20;72.00
9389;DHT22;4734;52.778;6.798;2022-07-17T04:49:23;13.20;71.90
9389;DHT22;4734;52.778;6.798;2022-07-17T04:52:09;13.30;72.00
9389;DHT22;4734;52.778;6.798;2022-07-17T04:54:55;13.20;72.00
9389;DHT22;4734;52.778;6.798;2022-07-17T04:57:42;13.20;71.90
9389;DHT22;4734;52.778;6.798;2022-07-17T05:00:27;13.30;71.90
9389;DHT22;4734;52.778;6.798;2022-07-17T05:03:13;13.30;71.90
9389;DHT22;4734;52.778;6.798;2022-07-17T05:05:59;13.20;71.90
9389;DHT22;4734;52.778;6.798;2022-07-17T05:08:44;13.20;72.00
9389;DHT22;4734;52.778;6.798;2022-07-17T05:11:30;13.20;71.90
9389;DHT22;4734;52.778;6.798;2022-07-17T05:14:17;13.30;71.90
9389;DHT22;4734;52.778;6.798;2022-07-17T05:17:03;13.20;71.80
9389;DHT22;4734;52.778;6.798;2022-07-17T05:19:48;13.20;71.90
9389;DHT22;4734;52.778;6.798;2022-07-17T05:22:34;13.20;71.80
9389;DHT22;4734;52.778;6.798;2022-07-17T05:25:20;13.30;71.90
9389;DHT22;4734;52.778;6.798;2022-07-17T05:28:05;13.30;71.90
9389;DHT22;4734;52.778;6.798;2022-07-17T05:30:52;13.40;71.90
9389;DHT22;4734;52.778;6.798;2022-07-17T05:33:38;13.50;71.80
9389;DHT22;4734;52.778;6.798;2022-07-17T05:36:23;13.50;71.50
9389;DHT22;4734;52.778;6.798;2022-07-17T05:39:09;13.60;71.50
9389;DHT22;4734;52.778;6.798;2022-07-17T05:41:55;13.70;71.40
9389;DHT22;4734;52.778;6.798;2022-07-17T05:44:40;13.70;71.30
9389;DHT22;4734;52.778;6.798;2022-07-17T05:47:27;13.80;71.20
9389;DHT22;4734;52.778;6.798;2022-07-17T05:50:13;13.90;71.20
9389;DHT22;4734;52.778;6.798;2022-07-17T05:52:58;13.90;71.10
9389;DHT22;4734;52.778;6.798;2022-07-17T05:55:44;14.00;71.00
9389;DHT22;4734;52.778;6.798;2022-07-17T05:58:30;14.00;70.90
9389;DHT22;4734;52.778;6.798;2022-07-17T06:01:16;14.00;70.90
9389;DHT22;4734;52.778;6.798;2022-07-17T06:04:03;14.10;70.90
9389;DHT22;4734;52.778;6.798;2022-07-17T06:06:48;14.10;70.80
9389;DHT22;4734;52.778;6.798;2022-07-17T06:09:34;14.20;70.80
9389;DHT22;4734;52.778;6.798;2022-07-17T06:12:20;14.30;70.90
9389;DHT22;4734;52.778;6.798;2022-07-17T06:15:06;14.30;70.80
9389;DHT22;4734;52.778;6.798;2022-07-17T06:17:52;14.30;70.60
9389;DHT22;4734;52.778;6.798;2022-07-17T06:20:39;14.40;70.70
9389;DHT22;4734;52.778;6.798;2022-07-17T06:23:24;14.50;70.70
9389;DHT22;4734;52.778;6.798;2022-07-17T06:26:10;14.50;70.60
9389;DHT22;4734;52.778;6.798;2022-07-17T06:28:56;14.60;70.60
9389;DHT22;4734;52.778;6.798;2022-07-17T06:31:41;14.60;70.50
9389;DHT22;4734;52.778;6.798;2022-07-17T06:34:27;14.70;70.50
9389;DHT22;4734;52.778;6.798;2022-07-17T06:37:14;14.80;70.50
9389;DHT22;4734;52.778;6.798;2022-07-17T06:39:59;14.80;70.20
9389;DHT22;4734;52.778;6.798;2022-07-17T06:42:45;14.90;70.20
9389;DHT22;4734;52.778;6.798;2022-07-17T06:45:31;15.00;70.10
9389;DHT22;4734;52.778;6.798;2022-07-17T06:48:17;15.10;70.00
9389;DHT22;4734;52.778;6.798;2022-07-17T06:51:04;15.10;70.00
9389;DHT22;4734;52.778;6.798;2022-07-17T06:53:50;15.20;69.80
9389;DHT22;4734;52.778;6.798;2022-07-17T06:56:36;15.30;69.70
9389;DHT22;4734;52.778;6.798;2022-07-17T06:59:21;15.30;70.60
9389;DHT22;4734;52.778;6.798;2022-07-17T07:02:07;15.40;70.60
9389;DHT22;4734;52.778;6.798;2022-07-17T07:04:52;15.50;71.20
9389;DHT22;4734;52.778;6.798;2022-07-17T07:07:38;15.50;71.60
9389;DHT22;4734;52.778;6.798;2022-07-17T07:10:25;15.70;71.80
9389;DHT22;4734;52.778;6.798;2022-07-17T07:13:10;15.80;72.20
9389;DHT22;4734;52.778;6.798;2022-07-17T07:15:56;15.90;72.50
9389;DHT22;4734;52.778;6.798;2022-07-17T07:18:42;16.10;72.90
9389;DHT22;4734;52.778;6.798;2022-07-17T07:21:28;16.30;74.00
9389;DHT22;4734;52.778;6.798;2022-07-17T07:24:13;16.40;74.00
9389;DHT22;4734;52.778;6.798;2022-07-17T07:27:00;16.50;74.40
9389;DHT22;4734;52.778;6.798;2022-07-17T07:29:45;16.70;75.10
9389;DHT22;4734;52.778;6.798;2022-07-17T07:32:31;16.90;75.10
9389;DHT22;4734;52.778;6.798;2022-07-17T07:35:17;17.00;75.50
9389;DHT22;4734;52.778;6.798;2022-07-17T07:38:03;17.20;75.80
9389;DHT22;4734;52.778;6.798;2022-07-17T07:40:49;17.30;76.10
9389;DHT22;4734;52.778;6.798;2022-07-17T07:43:35;17.60;76.70
9389;DHT22;4734;52.778;6.798;2022-07-17T07:46:21;17.70;76.80
9389;DHT22;4734;52.778;6.798;2022-07-17T07:49:07;17.90;76.90
9389;DHT22;4734;52.778;6.798;2022-07-17T07:51:52;18.10;77.40
9389;DHT22;4734;52.778;6.798;2022-07-17T07:54:38;18.30;77.80
9389;DHT22;4734;52.778;6.798;2022-07-17T07:57:24;18.40;78.00
9389;DHT22;4734;52.778;6.798;2022-07-17T08:00:12;18.60;78.10
9389;DHT22;4734;52.778;6.798;2022-07-17T08:02:58;18.80;78.60
9389;DHT22;4734;52.778;6.798;2022-07-17T08:05:43;19.00;78.50
9389;DHT22;4734;52.778;6.798;2022-07-17T08:08:29;19.20;78.80
9389;DHT22;4734;52.778;6.798;2022-07-17T08:11:14;19.40;78.80
9389;DHT22;4734;52.778;6.798;2022-07-17T08:14:00;19.60;79.20
9389;DHT22;4734;52.778;6.798;2022-07-17T08:16:47;19.80;79.70
9389;DHT22;4734;52.778;6.798;2022-07-17T08:19:32;20.00;79.70
9389;DHT22;4734;52.778;6.798;2022-07-17T08:22:18;20.20;79.80
9389;DHT22;4734;52.778;6.798;2022-07-17T08:25:05;20.40;80.40
9389;DHT22;4734;52.778;6.798;2022-07-17T08:27:50;20.50;79.70
9389;DHT22;4734;52.778;6.798;2022-07-17T08:30:36;20.70;79.10
9389;DHT22;4734;52.778;6.798;2022-07-17T08:33:23;20.80;79.00
9389;DHT22;4734;52.778;6.798;2022-07-17T08:36:08;21.10;79.20
9389;DHT22;4734;52.778;6.798;2022-07-17T08:38:54;21.20;79.50
9389;DHT22;4734;52.778;6.798;2022-07-17T08:41:40;21.40;80.00
9389;DHT22;4734;52.778;6.798;2022-07-17T08:44:25;21.60;79.60
9389;DHT22;4734;52.778;6.798;2022-07-17T08:47:12;21.80;79.70
9389;DHT22;4734;52.778;6.798;2022-07-17T08:49:59;22.00;79.90
9389;DHT22;4734;52.778;6.798;2022-07-17T08:52:45;22.20;80.20
9389;DHT22;4734;52.778;6.798;2022-07-17T08:55:30;22.50;80.20
9389;DHT22;4734;52.778;6.798;2022-07-17T08:58:16;22.70;80.70
9389;DHT22;4734;52.778;6.798;2022-07-17T09:01:03;22.90;80.90
9389;DHT22;4734;52.778;6.798;2022-07-17T09:03:59;23.10;81.60
9389;DHT22;4734;52.778;6.798;2022-07-17T09:06:59;23.40;82.50
9389;DHT22;4734;52.778;6.798;2022-07-17T09:09:49;23.60;82.30
9389;DHT22;4734;52.778;6.798;2022-07-17T09:12:35;23.80;82.90
9389;DHT22;4734;52.778;6.798;2022-07-17T09:15:21;24.00;82.40
9389;DHT22;4734;52.778;6.798;2022-07-17T09:18:06;24.20;81.60
9389;DHT22;4734;52.778;6.798;2022-07-17T09:20:53;24.40;81.40
9389;DHT22;4734;52.778;6.798;2022-07-17T09:23:41;24.60;80.50
9389;DHT22;4734;52.778;6.798;2022-07-17T09:26:27;24.70;79.10
9389;DHT22;4734;52.778;6.798;2022-07-17T09:29:12;24.90;77.80
9389;DHT22;4734;52.778;6.798;2022-07-17T09:31:58;25.10;77.50
9389;DHT22;4734;52.778;6.798;2022-07-17T09:34:44;25.30;77.90
9389;DHT22;4734;52.778;6.798;2022-07-17T09:37:31;25.50;79.00
9389;DHT22;4734;52.778;6.798;2022-07-17T09:40:20;25.70;77.80
9389;DHT22;4734;52.778;6.798;2022-07-17T09:43:24;25.90;76.40
9389;DHT22;4734;52.778;6.798;2022-07-17T09:46:12;26.00;75.00
9389;DHT22;4734;52.778;6.798;2022-07-17T09:49:06;26.20;76.00
9389;DHT22;4734;52.778;6.798;2022-07-17T09:52:07;26.40;75.30
9389;DHT22;4734;52.778;6.798;2022-07-17T09:54:59;26.60;74.90
9389;DHT22;4734;52.778;6.798;2022-07-17T09:57:47;26.70;73.50
9389;DHT22;4734;52.778;6.798;2022-07-17T10:00:35;26.90;73.40
9389;DHT22;4734;52.778;6.798;2022-07-17T10:03:21;27.10;73.70
9389;DHT22;4734;52.778;6.798;2022-07-17T10:06:06;27.30;74.70
9389;DHT22;4734;52.778;6.798;2022-07-17T10:08:53;27.40;75.00
9389;DHT22;4734;52.778;6.798;2022-07-17T10:11:40;27.60;76.20
9389;DHT22;4734;52.778;6.798;2022-07-17T10:14:28;27.80;76.30
9389;DHT22;4734;52.778;6.798;2022-07-17T10:17:19;28.00;75.90
9389;DHT22;4734;52.778;6.798;2022-07-17T10:20:06;28.20;75.10
9389;DHT22;4734;52.778;6.798;2022-07-17T10:22:51;28.30;72.10
9389;DHT22;4734;52.778;6.798;2022-07-17T10:25:37;28.40;70.80
9389;DHT22;4734;52.778;6.798;2022-07-17T10:28:23;28.50;69.50
9389;DHT22;4734;52.778;6.798;2022-07-17T10:31:21;28.60;69.80
9389;DHT22;4734;52.778;6.798;2022-07-17T10:34:08;28.70;67.80
9389;DHT22;4734;52.778;6.798;2022-07-17T10:36:53;28.80;66.50
9389;DHT22;4734;52.778;6.798;2022-07-17T10:39:39;29.00;68.10
9389;DHT22;4734;52.778;6.798;2022-07-17T10:42:39;29.10;71.00
9389;DHT22;4734;52.778;6.798;2022-07-17T10:45:28;29.30;71.10
9389;DHT22;4734;52.778;6.798;2022-07-17T10:48:20;29.50;68.90
9389;DHT22;4734;52.778;6.798;2022-07-17T10:51:07;29.60;69.60
9389;DHT22;4734;52.778;6.798;2022-07-17T10:53:56;29.70;67.10
9389;DHT22;4734;52.778;6.798;2022-07-17T10:56:42;29.70;66.90
9389;DHT22;4734;52.778;6.798;2022-07-17T10:59:29;29.90;67.20
9389;DHT22;4734;52.778;6.798;2022-07-17T11:02:15;30.00;66.40
9389;DHT22;4734;52.778;6.798;2022-07-17T11:05:07;30.10;68.00
9389;DHT22;4734;52.778;6.798;2022-07-17T11:07:54;30.20;67.40
9389;DHT22;4734;52.778;6.798;2022-07-17T11:10:40;30.40;67.70
9389;DHT22;4734;52.778;6.798;2022-07-17T11:13:26;30.50;66.10
9389;DHT22;4734;52.778;6.798;2022-07-17T11:16:12;30.50;65.50
9389;DHT22;4734;52.778;6.798;2022-07-17T11:18:58;30.70;67.40
9389;DHT22;4734;52.778;6.798;2022-07-17T11:21:49;30.80;67.80
9389;DHT22;4734;52.778;6.798;2022-07-17T11:24:36;30.90;67.00
9389;DHT22;4734;52.778;6.798;2022-07-17T11:27:23;31.00;66.70
9389;DHT22;4734;52.778;6.798;2022-07-17T11:30:12;31.10;67.80
9389;DHT22;4734;52.778;6.798;2022-07-17T11:33:00;31.30;68.40
9389;DHT22;4734;52.778;6.798;2022-07-17T11:35:47;31.40;69.00
9389;DHT22;4734;52.778;6.798;2022-07-17T11:38:35;31.50;66.30
9389;DHT22;4734;52.778;6.798;2022-07-17T11:41:21;31.60;67.00
9389;DHT22;4734;52.778;6.798;2022-07-17T11:44:17;31.70;65.70
9389;DHT22;4734;52.778;6.798;2022-07-17T11:47:03;31.80;66.60
9389;DHT22;4734;52.778;6.798;2022-07-17T11:49:49;31.90;65.80
9389;DHT22;4734;52.778;6.798;2022-07-17T11:52:46;32.00;65.20
9389;DHT22;4734;52.778;6.798;2022-07-17T11:55:37;32.10;66.40
9389;DHT22;4734;52.778;6.798;2022-07-17T11:58:23;32.20;67.30
9389;DHT22;4734;52.778;6.798;2022-07-17T12:01:09;32.30;69.70
9389;DHT22;4734;52.778;6.798;2022-07-17T12:03:57;32.40;69.40
9389;DHT22;4734;52.778;6.798;2022-07-17T12:06:43;32.50;69.30
9389;DHT22;4734;52.778;6.798;2022-07-17T12:09:31;32.60;71.90
9389;DHT22;4734;52.778;6.798;2022-07-17T12:12:20;32.70;70.80
9389;DHT22;4734;52.778;6.798;2022-07-17T12:15:07;32.70;71.20
9389;DHT22;4734;52.778;6.798;2022-07-17T12:17:53;32.70;71.70
9389;DHT22;4734;52.778;6.798;2022-07-17T12:20:43;32.70;71.80
9389;DHT22;4734;52.778;6.798;2022-07-17T12:23:30;32.70;72.10
9389;DHT22;4734;52.778;6.798;2022-07-17T12:26:17;32.70;71.20
9389;DHT22;4734;52.778;6.798;2022-07-17T12:29:05;32.60;71.00
9389;DHT22;4734;52.778;6.798;2022-07-17T12:32:01;32.50;67.30
9389;DHT22;4734;52.778;6.798;2022-07-17T12:34:48;32.50;69.40
9389;DHT22;4734;52.778;6.798;2022-07-17T12:37:34;32.40;71.40
9389;DHT22;4734;52.778;6.798;2022-07-17T12:40:20;32.40;71.10
9389;DHT22;4734;52.778;6.798;2022-07-17T12:43:05;32.40;72.30
9389;DHT22;4734;52.778;6.798;2022-07-17T12:45:53;32.40;73.10
9389;DHT22;4734;52.778;6.798;2022-07-17T12:48:38;32.40;74.80
9389;DHT22;4734;52.778;6.798;2022-07-17T12:51:25;32.30;75.20
9389;DHT22;4734;52.778;6.798;2022-07-17T12:54:11;32.30;76.80
9389;DHT22;4734;52.778;6.798;2022-07-17T12:56:56;32.20;76.60
9389;DHT22;4734;52.778;6.798;2022-07-17T12:59:42;32.20;76.30
9389;DHT22;4734;52.778;6.798;2022-07-17T13:02:29;32.10;77.00
9389;DHT22;4734;52.778;6.798;2022-07-17T13:05:15;32.10;77.40
9389;DHT22;4734;52.778;6.798;2022-07-17T13:08:01;32.00;78.20
9389;DHT22;4734;52.778;6.798;2022-07-17T13:10:46;32.00;78.50
9389;DHT22;4734;52.778;6.798;2022-07-17T13:13:32;32.00;79.60
9389;DHT22;4734;52.778;6.798;2022-07-17T13:16:18;32.00;79.40
9389;DHT22;4734;52.778;6.798;2022-07-17T13:19:05;32.00;78.70
9389;DHT22;4734;52.778;6.798;2022-07-17T13:21:50;32.00;79.40
9389;DHT22;4734;52.778;6.798;2022-07-17T13:24:36;32.00;78.30
9389;DHT22;4734;52.778;6.798;2022-07-17T13:27:22;32.00;78.10
9389;DHT22;4734;52.778;6.798;2022-07-17T13:30:09;32.00;77.30
9389;DHT22;4734;52.778;6.798;2022-07-17T13:32:55;32.10;74.80
9389;DHT22;4734;52.778;6.798;2022-07-17T13:35:42;32.10;75.00
9389;DHT22;4734;52.778;6.798;2022-07-17T13:38:28;32.20;75.40
9389;DHT22;4734;52.778;6.798;2022-07-17T13:41:14;32.20;76.60
9389;DHT22;4734;52.778;6.798;2022-07-17T13:44:00;32.40;76.80
9389;DHT22;4734;52.778;6.798;2022-07-17T13:46:45;32.50;76.20
9389;DHT22;4734;52.778;6.798;2022-07-17T13:49:31;32.60;75.10
9389;DHT22;4734;52.778;6.798;2022-07-17T13:52:35;32.70;74.70
9389;DHT22;4734;52.778;6.798;2022-07-17T13:55:25;32.80;74.50
9389;DHT22;4734;52.778;6.798;2022-07-17T13:58:10;33.00;73.80
9389;DHT22;4734;52.778;6.798;2022-07-17T14:00:56;33.10;73.30
9389;DHT22;4734;52.778;6.798;2022-07-17T14:03:41;33.20;72.30
9389;DHT22;4734;52.778;6.798;2022-07-17T14:06:27;33.40;71.50
9389;DHT22;4734;52.778;6.798;2022-07-17T14:09:14;33.50;70.90
9389;DHT22;4734;52.778;6.798;2022-07-17T14:12:00;33.60;70.40
9389;DHT22;4734;52.778;6.798;2022-07-17T14:14:46;33.80;68.80
9389;DHT22;4734;52.778;6.798;2022-07-17T14:17:31;33.80;67.80
9389;DHT22;4734;52.778;6.798;2022-07-17T14:20:17;33.90;66.80
9389;DHT22;4734;52.778;6.798;2022-07-17T14:23:03;34.00;67.10
9389;DHT22;4734;52.778;6.798;2022-07-17T14:25:50;34.10;66.00
9389;DHT22;4734;52.778;6.798;2022-07-17T14:28:38;34.20;65.70
9389;DHT22;4734;52.778;6.798;2022-07-17T14:31:24;34.30;64.60
9389;DHT22;4734;52.778;6.798;2022-07-17T14:34:10;34.30;64.20
9389;DHT22;4734;52.778;6.798;2022-07-17T14:36:55;34.30;64.50
9389;DHT22;4734;52.778;6.798;2022-07-17T14:39:41;34.30;64.40
9389;DHT22;4734;52.778;6.798;2022-07-17T14:42:29;34.40;64.30
9389;DHT22;4734;52.778;6.798;2022-07-17T14:45:17;34.40;63.90
9389;DHT22;4734;52.778;6.798;2022-07-17T14:48:04;34.40;63.60
9389;DHT22;4734;52.778;6.798;2022-07-17T14:50:50;34.40;63.10
9389;DHT22;4734;52.778;6.798;2022-07-17T14:53:35;34.30;62.90
9389;DHT22;4734;52.778;6.798;2022-07-17T14:56:21;34.30;62.40
9389;DHT22;4734;52.778;6.798;2022-07-17T14:59:08;34.30;62.60
9389;DHT22;4734;52.778;6.798;2022-07-17T15:01:54;34.30;62.60
9389;DHT22;4734;52.778;6.798;2022-07-17T15:04:40;34.30;62.90
9389;DHT22;4734;52.778;6.798;2022-07-17T15:07:25;34.30;62.70
9389;DHT22;4734;52.778;6.798;2022-07-17T15:10:11;34.30;62.90
9389;DHT22;4734;52.778;6.798;2022-07-17T15:12:57;34.30;63.00
9389;DHT22;4734;52.778;6.798;2022-07-17T15:15:44;34.30;62.70
9389;DHT22;4734;52.778;6.798;2022-07-17T15:18:29;34.30;62.80
9389;DHT22;4734;52.778;6.798;2022-07-17T15:21:15;34.30;62.10
9389;DHT22;4734;52.778;6.798;2022-07-17T15:24:00;34.30;62.30
9389;DHT22;4734;52.778;6.798;2022-07-17T15:26:46;34.30;61.80
9389;DHT22;4734;52.778;6.798;2022-07-17T15:29:32;34.40;63.20
9389;DHT22;4734;52.778;6.798;2022-07-17T15:32:18;34.30;62.50
9389;DHT22;4734;52.778;6.798;2022-07-17T15:35:05;34.30;62.30
9389;DHT22;4734;52.778;6.798;2022-07-17T15:37:51;34.30;61.40
9389;DHT22;4734;52.778;6.798;2022-07-17T15:40:37;34.30;62.30
9389;DHT22;4734;52.778;6.798;2022-07-17T15:43:23;34.30;62.20
9389;DHT22;4734;52.778;6.798;2022-07-17T15:46:09;34.30;62.40
9389;DHT22;4734;52.778;6.798;2022-07-17T15:48:56;34.30;62.30
9389;DHT22;4734;52.778;6.798;2022-07-17T15:51:41;34.30;62.20
9389;DHT22;4734;52.778;6.798;2022-07-17T15:54:27;34.30;62.00
9389;DHT22;4734;52.778;6.798;2022-07-17T15:57:13;34.20;62.00
9389;DHT22;4734;52.778;6.798;2022-07-17T15:59:59;34.20;62.30
9389;DHT22;4734;52.778;6.798;2022-07-17T16:02:44;34.10;62.50
9389;DHT22;4734;52.778;6.798;2022-07-17T16:05:31;34.20;61.90
9389;DHT22;4734;52.778;6.798;2022-07-17T16:08:16;34.10;62.30
9389;DHT22;4734;52.778;6.798;2022-07-17T16:11:02;34.10;62.50
9389;DHT22;4734;52.778;6.798;2022-07-17T16:13:48;34.00;62.40
9389;DHT22;4734;52.778;6.798;2022-07-17T16:16:33;34.00;61.80
9389;DHT22;4734;52.778;6.798;2022-07-17T16:19:19;33.90;62.50
9389;DHT22;4734;52.778;6.798;2022-07-17T16:22:06;33.90;62.70
9389;DHT22;4734;52.778;6.798;2022-07-17T16:24:52;33.90;63.00
9389;DHT22;4734;52.778;6.798;2022-07-17T16:27:38;33.90;62.90
9389;DHT22;4734;52.778;6.798;2022-07-17T16:30:23;33.80;63.10
9389;DHT22;4734;52.778;6.798;2022-07-17T16:33:09;33.80;63.20
9389;DHT22;4734;52.778;6.798;2022-07-17T16:35:54;33.80;63.20
9389;DHT22;4734;52.778;6.798;2022-07-17T16:38:42;33.80;63.60
9389;DHT22;4734;52.778;6.798;2022-07-17T16:41:27;33.80;63.70
9389;DHT22;4734;52.778;6.798;2022-07-17T16:44:15;33.70;63.90
9389;DHT22;4734;52.778;6.798;2022-07-17T16:47:00;33.70;63.80
9389;DHT22;4734;52.778;6.798;2022-07-17T16:49:46;33.70;63.90
9389;DHT22;4734;52.778;6.798;2022-07-17T16:52:31;33.70;64.00
9389;DHT22;4734;52.778;6.798;2022-07-17T16:55:19;33.70;64.20
9389;DHT22;4734;52.778;6.798;2022-07-17T16:58:05;33.70;63.90
9389;DHT22;4734;52.778;6.798;2022-07-17T17:00:51;33.70;64.20
9389;DHT22;4734;52.778;6.798;2022-07-17T17:03:36;33.70;64.10
9389;DHT22;4734;52.778;6.798;2022-07-17T17:06:22;33.60;64.00
9389;DHT22;4734;52.778;6.798;2022-07-17T17:09:09;33.60;64.20
9389;DHT22;4734;52.778;6.798;2022-07-17T17:11:56;33.70;63.90
9389;DHT22;4734;52.778;6.798;2022-07-17T17:14:42;33.60;63.90
9389;DHT22;4734;52.778;6.798;2022-07-17T17:17:27;33.50;63.80
9389;DHT22;4734;52.778;6.798;2022-07-17T17:20:13;33.50;64.00
9389;DHT22;4734;52.778;6.798;2022-07-17T17:22:59;33.50;64.10
9389;DHT22;4734;52.778;6.798;2022-07-17T17:25:45;33.40;64.00
9389;DHT22;4734;52.778;6.798;2022-07-17T17:28:32;33.30;64.00
9389;DHT22;4734;52.778;6.798;2022-07-17T17:31:18;33.30;64.20
9389;DHT22;4734;52.778;6.798;2022-07-17T17:34:04;33.20;64.20
9389;DHT22;4734;52.778;6.798;2022-07-17T17:36:53;33.20;64.40
9389;DHT22;4734;52.778;6.798;2022-07-17T17:39:38;33.10;64.40
9389;DHT22;4734;52.778;6.798;2022-07-17T17:42:24;33.10;64.40
9389;DHT22;4734;52.778;6.798;2022-07-17T17:45:12;33.10;64.60
9389;DHT22;4734;52.778;6.798;2022-07-17T17:47:58;33.00;64.40
9389;DHT22;4734;52.778;6.798;2022-07-17T17:50:43;32.90;64.50
9389;DHT22;4734;52.778;6.798;2022-07-17T17:53:29;32.90;64.60
9389;DHT22;4734;52.778;6.798;2022-07-17T17:56:14;32.80;64.60
9389;DHT22;4734;52.778;6.798;2022-07-17T17:59:00;32.70;64.50
9389;DHT22;4734;52.778;6.798;2022-07-17T18:01:47;32.60;64.50
9389;DHT22;4734;52.778;6.798;2022-07-17T18:04:33;32.50;64.50
9389;DHT22;4734;52.778;6.798;2022-07-17T18:07:18;32.40;64.70
9389;DHT22;4734;52.778;6.798;2022-07-17T18:10:05;32.20;64.70
9389;DHT22;4734;52.778;6.798;2022-07-17T18:12:51;32.20;64.90
9389;DHT22;4734;52.778;6.798;2022-07-17T18:15:37;32.10;65.00
9389;DHT22;4734;52.778;6.798;2022-07-17T18:18:24;32.00;65.00
9389;DHT22;4734;52.778;6.798;2022-07-17T18:21:09;31.90;65.00
9389;DHT22;4734;52.778;6.798;2022-07-17T18:23:55;31.80;65.10
9389;DHT22;4734;52.778;6.798;2022-07-17T18:26:41;31.60;65.40
9389;DHT22;4734;52.778;6.798;2022-07-17T18:29:26;31.50;65.60
9389;DHT22;4734;52.778;6.798;2022-07-17T18:32:12;31.30;65.70
9389;DHT22;4734;52.778;6.798;2022-07-17T18:34:59;31.20;65.80
9389;DHT22;4734;52.778;6.798;2022-07-17T18:37:44;31.00;66.10
9389;DHT22;4734;52.778;6.798;2022-07-17T18:40:30;30.90;66.10
9389;DHT22;4734;52.778;6.798;2022-07-17T18:43:15;30.70;66.30
9389;DHT22;4734;52.778;6.798;2022-07-17T18:46:01;30.60;66.60
9389;DHT22;4734;52.778;6.798;2022-07-17T18:48:47;30.40;66.70
9389;DHT22;4734;52.778;6.798;2022-07-17T18:51:34;30.20;66.80
9389;DHT22;4734;52.778;6.798;2022-07-17T18:54:20;30.10;67.00
9389;DHT22;4734;52.778;6.798;2022-07-17T18:57:05;29.90;67.10
9389;DHT22;4734;52.778;6.798;2022-07-17T18:59:51;29.70;67.20
9389;DHT22;4734;52.778;6.798;2022-07-17T19:02:37;29.60;67.50
9389;DHT22;4734;52.778;6.798;2022-07-17T19:05:23;29.40;67.40
9389;DHT22;4734;52.778;6.798;2022-07-17T19:08:10;29.30;67.70
9389;DHT22;4734;52.778;6.798;2022-07-17T19:10:55;29.10;67.80
9389;DHT22;4734;52.778;6.798;2022-07-17T19:13:41;28.90;67.90
9389;DHT22;4734;52.778;6.798;2022-07-17T19:16:27;28.80;68.10
9389;DHT22;4734;52.778;6.798;2022-07-17T19:19:12;28.60;68.30
9389;DHT22;4734;52.778;6.798;2022-07-17T19:21:58;28.50;68.40
9389;DHT22;4734;52.778;6.798;2022-07-17T19:24:45;28.40;68.70
9389;DHT22;4734;52.778;6.798;2022-07-17T19:27:31;28.20;68.70
9389;DHT22;4734;52.778;6.798;2022-07-17T19:30:16;28.00;68.90
9389;DHT22;4734;52.778;6.798;2022-07-17T19:33:02;27.80;69.00
9389;DHT22;4734;52.778;6.798;2022-07-17T19:35:48;27.60;69.10
9389;DHT22;4734;52.778;6.798;2022-07-17T19:38:34;27.50;69.50
9389;DHT22;4734;52.778;6.798;2022-07-17T19:41:21;27.20;69.70
9389;DHT22;4734;52.778;6.798;2022-07-17T19:44:06;27.10;70.20
9389;DHT22;4734;52.778;6.798;2022-07-17T19:46:52;26.90;70.20
9389;DHT22;4734;52.778;6.798;2022-07-17T19:49:37;26.70;70.70
9389;DHT22;4734;52.778;6.798;2022-07-17T19:52:23;26.50;70.90
9389;DHT22;4734;52.778;6.798;2022-07-17T19:55:09;26.40;71.40
9389;DHT22;4734;52.778;6.798;2022-07-17T19:57:56;26.20;71.40
9389;DHT22;4734;52.778;6.798;2022-07-17T20:00:41;26.10;71.80
9389;DHT22;4734;52.778;6.798;2022-07-17T20:03:27;25.90;71.70
9389;DHT22;4734;52.778;6.798;2022-07-17T20:06:13;25.80;72.20
9389;DHT22;4734;52.778;6.798;2022-07-17T20:08:58;25.60;72.50
9389;DHT22;4734;52.778;6.798;2022-07-17T20:11:44;25.50;72.60
9389;DHT22;4734;52.778;6.798;2022-07-17T20:14:31;25.30;72.80
9389;DHT22;4734;52.778;6.798;2022-07-17T20:17:17;25.20;73.00
9389;DHT22;4734;52.778;6.798;2022-07-17T20:20:03;25.10;73.10
9389;DHT22;4734;52.778;6.798;2022-07-17T20:22:49;25.00;73.30
9389;DHT22;4734;52.778;6.798;2022-07-17T20:25:35;24.80;73.40
9389;DHT22;4734;52.778;6.798;2022-07-17T20:28:21;24.70;73.50
9389;DHT22;4734;52.778;6.798;2022-07-17T20:31:08;24.60;73.60
9389;DHT22;4734;52.778;6.798;2022-07-17T20:33:53;24.50;73.90
9389;DHT22;4734;52.778;6.798;2022-07-17T20:36:39;24.30;74.00
9389;DHT22;4734;52.778;6.798;2022-07-17T20:39:26;24.20;74.20
9389;DHT22;4734;52.778;6.798;2022-07-17T20:42:11;24.10;74.30
9389;DHT22;4734;52.778;6.798;2022-07-17T20:44:57;24.00;74.40
9389;DHT22;4734;52.778;6.798;2022-07-17T20:47:44;23.90;74.50
9389;DHT22;4734;52.778;6.798;2022-07-17T20:50:29;23.80;74.80
9389;DHT22;4734;52.778;6.798;2022-07-17T20:53:15;23.70;74.60
9389;DHT22;4734;52.778;6.798;2022-07-17T20:56:01;23.60;74.90
9389;DHT22;4734;52.778;6.798;2022-07-17T20:58:47;23.50;74.80
9389;DHT22;4734;52.778;6.798;2022-07-17T21:01:33;23.40;75.00
9389;DHT22;4734;52.778;6.798;2022-07-17T21:04:20;23.30;75.20
9389;DHT22;4734;52.778;6.798;2022-07-17T21:07:05;23.20;75.30
9389;DHT22;4734;52.778;6.798;2022-07-17T21:09:51;23.10;75.90
9389;DHT22;4734;52.778;6.798;2022-07-17T21:12:36;23.00;75.20
9389;DHT22;4734;52.778;6.798;2022-07-17T21:15:22;22.90;75.40
9389;DHT22;4734;52.778;6.798;2022-07-17T21:18:08;22.80;75.50
9389;DHT22;4734;52.778;6.798;2022-07-17T21:20:55;22.70;75.50
9389;DHT22;4734;52.778;6.798;2022-07-17T21:23:40;22.60;75.40
9389;DHT22;4734;52.778;6.798;2022-07-17T21:26:26;22.50;75.60
9389;DHT22;4734;52.778;6.798;2022-07-17T21:29:11;22.50;75.80
9389;DHT22;4734;52.778;6.798;2022-07-17T21:31:57;22.40;75.70
9389;DHT22;4734;52.778;6.798;2022-07-17T21:34:42;22.30;75.90